sensor_id;sensor_type;location;lat;lon;timestamp;P1;durP1;ratioP1;P2;durP2;ratioP2
44588;SDS011;30298;52.562;13.414;2022-11-24T00:01:49;93.53;;;40.30;;
44588;SDS011;30298;52.562;13.414;2022-11-24T00:04:15;85.00;;;38.40;;
44588;SDS011;30298;52.562;13.414;2022-11-24T00:06:40;96.03;;;38.43;;
44588;SDS011;30298;52.562;13.414;2022-11-24T00:09:06;90.17;;;38.43;;
44588;SDS011;30298;52.562;13.414;2022-11-24T00:11:32;93.78;;;41.22;;
44588;SDS011;30298;52.562;13.414;2022-11-24T00:13:59;90.13;;;38.25;;
44588;SDS011;30298;52.562;13.414;2022-11-24T00:16:25;97.47;;;38.50;;
44588;SDS011;30298;52.562;13.414;2022-11-24T00:18:52;96.40;;;37.80;;
44588;SDS011;30298;52.562;13.414;2022-11-24T00:21:17;92.55;;;37.22;;
44588;SDS011;30298;52.562;13.414;2022-11-24T00:23:43;86.28;;;37.65;;
44588;SDS011;30298;52.562;13.414;2022-11-24T00:26:15;90.57;;;38.33;;
44588;SDS011;30298;52.562;13.414;2022-11-24T00:28:42;88.32;;;37.53;;
44588;SDS011;30298;52.562;13.414;2022-11-24T00:31:20;90.30;;;37.47;;
44588;SDS011;30298;52.562;13.414;2022-11-24T00:33:46;94.68;;;38.17;;
44588;SDS011;30298;52.562;13.414;2022-11-24T00:36:11;101.40;;;40.83;;
44588;SDS011;30298;52.562;13.414;2022-11-24T00:38:36;103.30;;;39.10;;
44588;SDS011;30298;52.562;13.414;2022-11-24T00:41:02;95.73;;;37.97;;
44588;SDS011;30298;52.562;13.414;2022-11-24T00:43:27;95.23;;;38.80;;
44588;SDS011;30298;52.562;13.414;2022-11-24T00:45:52;88.33;;;37.27;;
44588;SDS011;30298;52.562;13.414;2022-11-24T00:48:18;94.33;;;38.30;;
44588;SDS011;30298;52.562;13.414;2022-11-24T00:50:43;101.60;;;39.23;;
44588;SDS011;30298;52.562;13.414;2022-11-24T00:53:08;86.97;;;38.33;;
44588;SDS011;30298;52.562;13.414;2022-11-24T00:55:34;98.80;;;41.27;;
44588;SDS011;30298;52.562;13.414;2022-11-24T00:57:59;89.72;;;39.65;;
44588;SDS011;30298;52.562;13.414;2022-11-24T01:00:24;89.20;;;39.53;;
44588;SDS011;30298;52.562;13.414;2022-11-24T01:02:51;92.85;;;41.03;;
44588;SDS011;30298;52.562;13.414;2022-11-24T01:05:16;91.47;;;39.85;;
44588;SDS011;30298;52.562;13.414;2022-11-24T01:07:42;90.07;;;38.85;;
44588;SDS011;30298;52.562;13.414;2022-11-24T01:10:07;100.50;;;41.03;;
44588;SDS011;30298;52.562;13.414;2022-11-24T01:12:33;88.97;;;37.90;;
44588;SDS011;30298;52.562;13.414;2022-11-24T01:14:58;97.90;;;40.15;;
44588;SDS011;30298;52.562;13.414;2022-11-24T01:17:24;90.43;;;38.43;;
44588;SDS011;30298;52.562;13.414;2022-11-24T01:19:49;90.87;;;39.20;;
44588;SDS011;30298;52.562;13.414;2022-11-24T01:22:15;95.07;;;39.30;;
44588;SDS011;30298;52.562;13.414;2022-11-24T01:24:40;93.15;;;38.10;;
44588;SDS011;30298;52.562;13.414;2022-11-24T01:27:06;91.47;;;38.97;;
44588;SDS011;30298;52.562;13.414;2022-11-24T01:29:31;84.17;;;37.00;;
44588;SDS011;30298;52.562;13.414;2022-11-24T01:31:56;99.67;;;40.27;;
44588;SDS011;30298;52.562;13.414;2022-11-24T01:34:22;90.07;;;38.33;;
44588;SDS011;30298;52.562;13.414;2022-11-24T01:36:47;91.60;;;37.10;;
44588;SDS011;30298;52.562;13.414;2022-11-24T01:39:12;114.33;;;39.93;;
44588;SDS011;30298;52.562;13.414;2022-11-24T01:41:38;87.83;;;36.67;;
44588;SDS011;30298;52.562;13.414;2022-11-24T01:44:19;87.38;;;37.60;;
44588;SDS011;30298;52.562;13.414;2022-11-24T01:46:45;89.35;;;38.65;;
44588;SDS011;30298;52.562;13.414;2022-11-24T01:49:16;104.53;;;38.47;;
44588;SDS011;30298;52.562;13.414;2022-11-24T01:51:49;94.60;;;37.53;;
44588;SDS011;30298;52.562;13.414;2022-11-24T01:54:26;91.93;;;37.28;;
44588;SDS011;30298;52.562;13.414;2022-11-24T01:56:53;90.82;;;38.85;;
44588;SDS011;30298;52.562;13.414;2022-11-24T01:59:19;81.82;;;36.28;;
44588;SDS011;30298;52.562;13.414;2022-11-24T02:01:45;96.25;;;40.17;;
44588;SDS011;30298;52.562;13.414;2022-11-24T02:04:12;88.57;;;37.97;;
44588;SDS011;30298;52.562;13.414;2022-11-24T02:06:40;86.53;;;36.67;;
44588;SDS011;30298;52.562;13.414;2022-11-24T02:11:33;89.63;;;35.78;;
44588;SDS011;30298;52.562;13.414;2022-11-24T02:13:59;84.18;;;36.92;;
44588;SDS011;30298;52.562;13.414;2022-11-24T02:16:25;86.78;;;36.67;;
44588;SDS011;30298;52.562;13.414;2022-11-24T02:18:50;85.78;;;36.03;;
44588;SDS011;30298;52.562;13.414;2022-11-24T02:21:15;89.80;;;36.60;;
44588;SDS011;30298;52.562;13.414;2022-11-24T02:23:43;86.22;;;32.97;;
44588;SDS011;30298;52.562;13.414;2022-11-24T02:28:52;79.85;;;34.83;;
44588;SDS011;30298;52.562;13.414;2022-11-24T02:31:17;88.83;;;34.07;;
44588;SDS011;30298;52.562;13.414;2022-11-24T02:33:42;78.33;;;33.50;;
44588;SDS011;30298;52.562;13.414;2022-11-24T02:36:07;82.73;;;34.97;;
44588;SDS011;30298;52.562;13.414;2022-11-24T02:38:33;81.83;;;33.33;;
44588;SDS011;30298;52.562;13.414;2022-11-24T02:41:03;77.82;;;33.95;;
44588;SDS011;30298;52.562;13.414;2022-11-24T02:43:30;91.72;;;33.35;;
44588;SDS011;30298;52.562;13.414;2022-11-24T02:45:57;79.72;;;33.08;;
44588;SDS011;30298;52.562;13.414;2022-11-24T02:48:22;76.77;;;34.73;;
44588;SDS011;30298;52.562;13.414;2022-11-24T02:50:47;79.00;;;33.53;;
44588;SDS011;30298;52.562;13.414;2022-11-24T02:53:13;84.40;;;32.90;;
44588;SDS011;30298;52.562;13.414;2022-11-24T02:55:38;83.63;;;33.40;;
44588;SDS011;30298;52.562;13.414;2022-11-24T02:58:03;81.17;;;34.37;;
44588;SDS011;30298;52.562;13.414;2022-11-24T03:00:28;81.43;;;35.23;;
44588;SDS011;30298;52.562;13.414;2022-11-24T03:02:54;83.90;;;32.97;;
44588;SDS011;30298;52.562;13.414;2022-11-24T03:05:19;79.50;;;34.53;;
44588;SDS011;30298;52.562;13.414;2022-11-24T03:07:44;75.17;;;33.50;;
44588;SDS011;30298;52.562;13.414;2022-11-24T03:10:09;75.87;;;33.60;;
44588;SDS011;30298;52.562;13.414;2022-11-24T03:12:35;76.13;;;33.13;;
44588;SDS011;30298;52.562;13.414;2022-11-24T03:15:00;77.57;;;31.23;;
44588;SDS011;30298;52.562;13.414;2022-11-24T03:17:27;81.57;;;34.28;;
44588;SDS011;30298;52.562;13.414;2022-11-24T03:19:52;72.22;;;32.55;;
44588;SDS011;30298;52.562;13.414;2022-11-24T03:22:17;83.50;;;33.20;;
44588;SDS011;30298;52.562;13.414;2022-11-24T03:24:43;72.07;;;32.50;;
44588;SDS011;30298;52.562;13.414;2022-11-24T03:27:08;75.33;;;32.60;;
44588;SDS011;30298;52.562;13.414;2022-11-24T03:29:33;73.97;;;32.17;;
44588;SDS011;30298;52.562;13.414;2022-11-24T03:31:59;78.97;;;34.63;;
44588;SDS011;30298;52.562;13.414;2022-11-24T03:34:24;89.83;;;31.03;;
44588;SDS011;30298;52.562;13.414;2022-11-24T03:36:49;84.13;;;32.87;;
44588;SDS011;30298;52.562;13.414;2022-11-24T03:39:14;72.43;;;31.70;;
44588;SDS011;30298;52.562;13.414;2022-11-24T03:41:40;81.37;;;31.57;;
44588;SDS011;30298;52.562;13.414;2022-11-24T03:44:05;86.50;;;33.17;;
44588;SDS011;30298;52.562;13.414;2022-11-24T03:46:30;80.53;;;31.67;;
44588;SDS011;30298;52.562;13.414;2022-11-24T03:48:56;71.23;;;31.00;;
44588;SDS011;30298;52.562;13.414;2022-11-24T03:51:21;71.53;;;29.53;;
44588;SDS011;30298;52.562;13.414;2022-11-24T03:53:46;79.77;;;30.80;;
44588;SDS011;30298;52.562;13.414;2022-11-24T03:56:12;71.57;;;29.50;;
44588;SDS011;30298;52.562;13.414;2022-11-24T03:58:37;78.50;;;33.33;;
44588;SDS011;30298;52.562;13.414;2022-11-24T04:01:03;75.77;;;31.90;;
44588;SDS011;30298;52.562;13.414;2022-11-24T04:03:28;75.00;;;31.07;;
44588;SDS011;30298;52.562;13.414;2022-11-24T04:05:53;70.07;;;31.20;;
44588;SDS011;30298;52.562;13.414;2022-11-24T04:08:19;69.27;;;31.10;;
44588;SDS011;30298;52.562;13.414;2022-11-24T04:10:47;74.37;;;31.23;;
44588;SDS011;30298;52.562;13.414;2022-11-24T04:13:18;68.57;;;29.67;;
44588;SDS011;30298;52.562;13.414;2022-11-24T04:15:43;72.20;;;30.08;;
44588;SDS011;30298;52.562;13.414;2022-11-24T04:18:09;72.87;;;30.23;;
44588;SDS011;30298;52.562;13.414;2022-11-24T04:20:34;74.10;;;28.52;;
44588;SDS011;30298;52.562;13.414;2022-11-24T04:23:00;69.43;;;29.97;;
44588;SDS011;30298;52.562;13.414;2022-11-24T04:25:26;71.88;;;30.40;;
44588;SDS011;30298;52.562;13.414;2022-11-24T04:27:51;70.03;;;30.42;;
44588;SDS011;30298;52.562;13.414;2022-11-24T04:30:17;75.20;;;29.73;;
44588;SDS011;30298;52.562;13.414;2022-11-24T04:32:43;68.55;;;28.40;;
44588;SDS011;30298;52.562;13.414;2022-11-24T04:35:08;76.30;;;29.63;;
44588;SDS011;30298;52.562;13.414;2022-11-24T04:37:33;69.10;;;27.60;;
44588;SDS011;30298;52.562;13.414;2022-11-24T04:39:59;69.10;;;28.30;;
44588;SDS011;30298;52.562;13.414;2022-11-24T04:42:25;79.50;;;29.60;;
44588;SDS011;30298;52.562;13.414;2022-11-24T04:44:50;66.43;;;29.63;;
44588;SDS011;30298;52.562;13.414;2022-11-24T04:47:19;74.97;;;29.53;;
44588;SDS011;30298;52.562;13.414;2022-11-24T04:49:45;74.82;;;29.23;;
44588;SDS011;30298;52.562;13.414;2022-11-24T04:52:11;75.30;;;29.40;;
44588;SDS011;30298;52.562;13.414;2022-11-24T04:54:36;68.70;;;29.40;;
44588;SDS011;30298;52.562;13.414;2022-11-24T04:57:01;77.53;;;29.43;;
44588;SDS011;30298;52.562;13.414;2022-11-24T04:59:26;78.53;;;29.17;;
44588;SDS011;30298;52.562;13.414;2022-11-24T05:01:54;72.40;;;29.52;;
44588;SDS011;30298;52.562;13.414;2022-11-24T05:04:19;74.93;;;29.37;;
44588;SDS011;30298;52.562;13.414;2022-11-24T05:06:45;69.07;;;29.10;;
44588;SDS011;30298;52.562;13.414;2022-11-24T05:09:12;72.10;;;28.38;;
44588;SDS011;30298;52.562;13.414;2022-11-24T05:11:38;79.05;;;30.15;;
44588;SDS011;30298;52.562;13.414;2022-11-24T05:14:03;69.90;;;27.87;;
44588;SDS011;30298;52.562;13.414;2022-11-24T05:16:28;73.53;;;29.50;;
44588;SDS011;30298;52.562;13.414;2022-11-24T05:18:53;73.63;;;29.20;;
44588;SDS011;30298;52.562;13.414;2022-11-24T05:21:19;71.97;;;27.80;;
44588;SDS011;30298;52.562;13.414;2022-11-24T05:23:44;64.90;;;28.67;;
44588;SDS011;30298;52.562;13.414;2022-11-24T05:26:09;73.73;;;27.80;;
44588;SDS011;30298;52.562;13.414;2022-11-24T05:28:34;70.87;;;26.93;;
44588;SDS011;30298;52.562;13.414;2022-11-24T05:31:00;71.20;;;29.47;;
44588;SDS011;30298;52.562;13.414;2022-11-24T05:33:25;77.60;;;28.00;;
44588;SDS011;30298;52.562;13.414;2022-11-24T05:35:52;71.57;;;27.05;;
44588;SDS011;30298;52.562;13.414;2022-11-24T05:38:18;69.22;;;28.83;;
44588;SDS011;30298;52.562;13.414;2022-11-24T05:40:43;63.67;;;26.20;;
44588;SDS011;30298;52.562;13.414;2022-11-24T05:43:09;70.87;;;26.67;;
44588;SDS011;30298;52.562;13.414;2022-11-24T05:45:34;68.05;;;25.13;;
44588;SDS011;30298;52.562;13.414;2022-11-24T05:48:02;79.40;;;27.63;;
44588;SDS011;30298;52.562;13.414;2022-11-24T05:50:28;65.28;;;25.15;;
44588;SDS011;30298;52.562;13.414;2022-11-24T05:52:53;131.63;;;26.53;;
44588;SDS011;30298;52.562;13.414;2022-11-24T05:55:18;63.97;;;27.20;;
44588;SDS011;30298;52.562;13.414;2022-11-24T05:57:43;64.80;;;25.17;;
44588;SDS011;30298;52.562;13.414;2022-11-24T06:00:09;61.87;;;27.00;;
44588;SDS011;30298;52.562;13.414;2022-11-24T06:02:34;69.72;;;27.08;;
44588;SDS011;30298;52.562;13.414;2022-11-24T06:05:00;65.77;;;27.13;;
44588;SDS011;30298;52.562;13.414;2022-11-24T06:07:25;68.00;;;25.93;;
44588;SDS011;30298;52.562;13.414;2022-11-24T06:09:50;65.97;;;26.40;;
44588;SDS011;30298;52.562;13.414;2022-11-24T06:12:15;61.33;;;25.70;;
44588;SDS011;30298;52.562;13.414;2022-11-24T06:14:41;62.03;;;25.60;;
44588;SDS011;30298;52.562;13.414;2022-11-24T06:17:06;59.50;;;25.97;;
44588;SDS011;30298;52.562;13.414;2022-11-24T06:19:32;49.90;;;21.65;;
44588;SDS011;30298;52.562;13.414;2022-11-24T06:21:57;57.97;;;24.07;;
44588;SDS011;30298;52.562;13.414;2022-11-24T06:24:22;57.43;;;24.37;;
44588;SDS011;30298;52.562;13.414;2022-11-24T06:26:47;61.40;;;24.57;;
44588;SDS011;30298;52.562;13.414;2022-11-24T06:29:13;62.97;;;24.83;;
44588;SDS011;30298;52.562;13.414;2022-11-24T06:31:38;56.00;;;24.13;;
44588;SDS011;30298;52.562;13.414;2022-11-24T06:34:07;67.30;;;23.50;;
44588;SDS011;30298;52.562;13.414;2022-11-24T06:36:34;52.53;;;23.00;;
44588;SDS011;30298;52.562;13.414;2022-11-24T06:39:00;58.03;;;23.80;;
44588;SDS011;30298;52.562;13.414;2022-11-24T06:41:26;57.08;;;25.88;;
44588;SDS011;30298;52.562;13.414;2022-11-24T06:43:51;57.53;;;23.70;;
44588;SDS011;30298;52.562;13.414;2022-11-24T06:46:17;63.10;;;26.80;;
44588;SDS011;30298;52.562;13.414;2022-11-24T06:48:42;60.87;;;25.10;;
44588;SDS011;30298;52.562;13.414;2022-11-24T06:51:08;68.40;;;25.97;;
44588;SDS011;30298;52.562;13.414;2022-11-24T06:53:34;60.45;;;25.38;;
44588;SDS011;30298;52.562;13.414;2022-11-24T06:56:02;57.40;;;23.60;;
44588;SDS011;30298;52.562;13.414;2022-11-24T06:58:28;62.85;;;23.60;;
44588;SDS011;30298;52.562;13.414;2022-11-24T07:00:53;55.77;;;25.00;;
44588;SDS011;30298;52.562;13.414;2022-11-24T07:03:18;53.43;;;24.50;;
44588;SDS011;30298;52.562;13.414;2022-11-24T07:05:44;57.63;;;24.70;;
44588;SDS011;30298;52.562;13.414;2022-11-24T07:08:09;53.60;;;24.83;;
44588;SDS011;30298;52.562;13.414;2022-11-24T07:10:35;57.43;;;23.60;;
44588;SDS011;30298;52.562;13.414;2022-11-24T07:13:00;60.70;;;24.63;;
44588;SDS011;30298;52.562;13.414;2022-11-24T07:15:27;61.35;;;25.60;;
44588;SDS011;30298;52.562;13.414;2022-11-24T07:17:53;56.53;;;25.00;;
44588;SDS011;30298;52.562;13.414;2022-11-24T07:20:18;65.87;;;25.30;;
44588;SDS011;30298;52.562;13.414;2022-11-24T07:22:43;58.13;;;23.77;;
44588;SDS011;30298;52.562;13.414;2022-11-24T07:25:08;51.87;;;22.63;;
44588;SDS011;30298;52.562;13.414;2022-11-24T07:27:35;54.90;;;24.00;;
44588;SDS011;30298;52.562;13.414;2022-11-24T07:30:00;56.93;;;24.43;;
44588;SDS011;30298;52.562;13.414;2022-11-24T07:32:25;54.38;;;23.67;;
44588;SDS011;30298;52.562;13.414;2022-11-24T07:34:51;57.37;;;22.87;;
44588;SDS011;30298;52.562;13.414;2022-11-24T07:37:16;47.23;;;21.17;;
44588;SDS011;30298;52.562;13.414;2022-11-24T07:39:41;49.00;;;22.43;;
44588;SDS011;30298;52.562;13.414;2022-11-24T07:42:06;48.57;;;20.80;;
44588;SDS011;30298;52.562;13.414;2022-11-24T07:44:32;48.83;;;22.17;;
44588;SDS011;30298;52.562;13.414;2022-11-24T07:46:58;46.50;;;21.97;;
44588;SDS011;30298;52.562;13.414;2022-11-24T07:49:23;43.37;;;20.53;;
44588;SDS011;30298;52.562;13.414;2022-11-24T07:51:49;51.03;;;22.03;;
44588;SDS011;30298;52.562;13.414;2022-11-24T07:54:14;50.03;;;22.50;;
44588;SDS011;30298;52.562;13.414;2022-11-24T07:56:39;51.77;;;22.80;;
44588;SDS011;30298;52.562;13.414;2022-11-24T07:59:05;50.23;;;22.70;;
44588;SDS011;30298;52.562;13.414;2022-11-24T08:01:30;47.43;;;21.03;;
44588;SDS011;30298;52.562;13.414;2022-11-24T08:03:55;45.17;;;21.70;;
44588;SDS011;30298;52.562;13.414;2022-11-24T08:06:21;50.37;;;22.23;;
44588;SDS011;30298;52.562;13.414;2022-11-24T08:08:46;44.10;;;20.60;;
44588;SDS011;30298;52.562;13.414;2022-11-24T08:11:15;49.17;;;21.87;;
44588;SDS011;30298;52.562;13.414;2022-11-24T08:13:42;47.78;;;23.10;;
44588;SDS011;30298;52.562;13.414;2022-11-24T08:16:08;50.03;;;23.92;;
44588;SDS011;30298;52.562;13.414;2022-11-24T08:18:34;52.90;;;23.27;;
44588;SDS011;30298;52.562;13.414;2022-11-24T08:21:00;47.13;;;21.67;;
44588;SDS011;30298;52.562;13.414;2022-11-24T08:23:26;50.63;;;20.52;;
44588;SDS011;30298;52.562;13.414;2022-11-24T08:25:52;52.50;;;23.17;;
44588;SDS011;30298;52.562;13.414;2022-11-24T08:28:19;52.42;;;23.45;;
44588;SDS011;30298;52.562;13.414;2022-11-24T08:30:44;46.30;;;21.70;;
44588;SDS011;30298;52.562;13.414;2022-11-24T08:33:09;47.70;;;21.47;;
44588;SDS011;30298;52.562;13.414;2022-11-24T08:35:35;53.47;;;23.87;;
44588;SDS011;30298;52.562;13.414;2022-11-24T08:38:02;51.58;;;22.48;;
44588;SDS011;30298;52.562;13.414;2022-11-24T08:40:27;52.73;;;22.10;;
44588;SDS011;30298;52.562;13.414;2022-11-24T08:42:55;54.10;;;21.97;;
44588;SDS011;30298;52.562;13.414;2022-11-24T08:45:21;56.08;;;23.17;;
44588;SDS011;30298;52.562;13.414;2022-11-24T08:47:49;54.87;;;24.27;;
44588;SDS011;30298;52.562;13.414;2022-11-24T08:50:15;48.20;;;22.73;;
44588;SDS011;30298;52.562;13.414;2022-11-24T08:52:40;53.50;;;23.53;;
44588;SDS011;30298;52.562;13.414;2022-11-24T08:55:06;52.67;;;23.65;;
44588;SDS011;30298;52.562;13.414;2022-11-24T08:57:31;54.30;;;24.83;;
44588;SDS011;30298;52.562;13.414;2022-11-24T08:59:57;52.63;;;23.93;;
44588;SDS011;30298;52.562;13.414;2022-11-24T09:02:22;51.50;;;22.67;;
44588;SDS011;30298;52.562;13.414;2022-11-24T09:04:47;50.97;;;22.90;;
44588;SDS011;30298;52.562;13.414;2022-11-24T09:07:12;55.80;;;24.17;;
44588;SDS011;30298;52.562;13.414;2022-11-24T09:09:38;51.90;;;24.47;;
44588;SDS011;30298;52.562;13.414;2022-11-24T09:12:03;48.13;;;23.23;;
44588;SDS011;30298;52.562;13.414;2022-11-24T09:14:28;47.80;;;22.57;;
44588;SDS011;30298;52.562;13.414;2022-11-24T09:16:54;47.57;;;21.60;;
44588;SDS011;30298;52.562;13.414;2022-11-24T09:19:19;44.70;;;22.47;;
44588;SDS011;30298;52.562;13.414;2022-11-24T09:21:44;45.53;;;21.23;;
44588;SDS011;30298;52.562;13.414;2022-11-24T09:24:09;46.23;;;23.07;;
44588;SDS011;30298;52.562;13.414;2022-11-24T09:26:35;53.47;;;23.07;;
44588;SDS011;30298;52.562;13.414;2022-11-24T09:31:28;44.13;;;20.92;;
44588;SDS011;30298;52.562;13.414;2022-11-24T09:33:53;42.95;;;22.45;;
44588;SDS011;30298;52.562;13.414;2022-11-24T09:36:19;50.67;;;22.63;;
44588;SDS011;30298;52.562;13.414;2022-11-24T09:38:44;48.90;;;22.85;;
44588;SDS011;30298;52.562;13.414;2022-11-24T09:43:40;44.80;;;22.07;;
44588;SDS011;30298;52.562;13.414;2022-11-24T09:46:18;44.40;;;23.02;;
44588;SDS011;30298;52.562;13.414;2022-11-24T09:48:45;45.72;;;21.92;;
44588;SDS011;30298;52.562;13.414;2022-11-24T09:51:12;47.45;;;23.60;;
44588;SDS011;30298;52.562;13.414;2022-11-24T09:53:48;48.97;;;23.45;;
44588;SDS011;30298;52.562;13.414;2022-11-24T09:56:21;52.60;;;24.02;;
44588;SDS011;30298;52.562;13.414;2022-11-24T10:01:31;44.22;;;22.58;;
44588;SDS011;30298;52.562;13.414;2022-11-24T10:03:57;46.47;;;23.05;;
44588;SDS011;30298;52.562;13.414;2022-11-24T10:06:27;49.17;;;22.90;;
44588;SDS011;30298;52.562;13.414;2022-11-24T10:14:17;44.77;;;23.03;;
44588;SDS011;30298;52.562;13.414;2022-11-24T10:16:52;47.13;;;24.52;;
44588;SDS011;30298;52.562;13.414;2022-11-24T10:24:39;43.47;;;21.65;;
44588;SDS011;30298;52.562;13.414;2022-11-24T10:27:15;46.33;;;23.05;;
44588;SDS011;30298;52.562;13.414;2022-11-24T10:29:41;45.75;;;23.67;;
44588;SDS011;30298;52.562;13.414;2022-11-24T10:32:12;45.80;;;22.10;;
44588;SDS011;30298;52.562;13.414;2022-11-24T10:34:40;46.50;;;23.52;;
44588;SDS011;30298;52.562;13.414;2022-11-24T10:42:36;46.63;;;23.90;;
44588;SDS011;30298;52.562;13.414;2022-11-24T10:45:09;47.13;;;21.73;;
44588;SDS011;30298;52.562;13.414;2022-11-24T10:47:35;47.85;;;23.88;;
44588;SDS011;30298;52.562;13.414;2022-11-24T10:50:02;45.80;;;23.23;;
44588;SDS011;30298;52.562;13.414;2022-11-24T10:52:28;46.03;;;23.73;;
44588;SDS011;30298;52.562;13.414;2022-11-24T10:57:27;46.00;;;21.67;;
44588;SDS011;30298;52.562;13.414;2022-11-24T10:59:53;45.42;;;23.50;;
44588;SDS011;30298;52.562;13.414;2022-11-24T11:02:40;41.03;;;21.45;;
44588;SDS011;30298;52.562;13.414;2022-11-24T11:07:48;43.08;;;21.33;;
44588;SDS011;30298;52.562;13.414;2022-11-24T11:10:18;43.13;;;21.67;;
44588;SDS011;30298;52.562;13.414;2022-11-24T11:12:44;38.25;;;21.00;;
44588;SDS011;30298;52.562;13.414;2022-11-24T11:15:25;42.33;;;21.53;;
44588;SDS011;30298;52.562;13.414;2022-11-24T11:17:55;38.63;;;21.10;;
44588;SDS011;30298;52.562;13.414;2022-11-24T11:20:23;40.90;;;21.15;;
44588;SDS011;30298;52.562;13.414;2022-11-24T11:22:51;39.70;;;21.35;;
44588;SDS011;30298;52.562;13.414;2022-11-24T11:25:18;46.47;;;22.83;;
44588;SDS011;30298;52.562;13.414;2022-11-24T11:27:44;39.25;;;21.10;;
44588;SDS011;30298;52.562;13.414;2022-11-24T11:30:17;41.58;;;22.30;;
44588;SDS011;30298;52.562;13.414;2022-11-24T11:35:34;41.75;;;21.38;;
44588;SDS011;30298;52.562;13.414;2022-11-24T11:38:02;39.35;;;21.98;;
44588;SDS011;30298;52.562;13.414;2022-11-24T11:40:30;41.33;;;22.25;;
44588;SDS011;30298;52.562;13.414;2022-11-24T11:45:24;40.40;;;24.03;;
44588;SDS011;30298;52.562;13.414;2022-11-24T11:47:51;43.00;;;23.92;;
44588;SDS011;30298;52.562;13.414;2022-11-24T11:50:39;43.25;;;23.05;;
44588;SDS011;30298;52.562;13.414;2022-11-24T12:03:49;38.08;;;21.27;;
44588;SDS011;30298;52.562;13.414;2022-11-24T12:06:22;39.00;;;20.98;;
44588;SDS011;30298;52.562;13.414;2022-11-24T12:21:58;35.20;;;20.08;;
44588;SDS011;30298;52.562;13.414;2022-11-24T12:34:56;43.40;;;21.88;;
44588;SDS011;30298;52.562;13.414;2022-11-24T12:37:27;38.47;;;21.33;;
44588;SDS011;30298;52.562;13.414;2022-11-24T12:48:07;40.17;;;20.92;;
44588;SDS011;30298;52.562;13.414;2022-11-24T12:50:38;39.47;;;20.48;;
44588;SDS011;30298;52.562;13.414;2022-11-24T12:53:09;41.67;;;20.85;;
44588;SDS011;30298;52.562;13.414;2022-11-24T12:55:36;42.30;;;21.70;;
44588;SDS011;30298;52.562;13.414;2022-11-24T12:58:09;40.47;;;22.73;;
44588;SDS011;30298;52.562;13.414;2022-11-24T13:05:36;35.88;;;20.05;;
44588;SDS011;30298;52.562;13.414;2022-11-24T13:08:03;37.35;;;21.35;;
44588;SDS011;30298;52.562;13.414;2022-11-24T13:13:04;37.95;;;20.35;;
44588;SDS011;30298;52.562;13.414;2022-11-24T13:15:31;38.70;;;22.45;;
44588;SDS011;30298;52.562;13.414;2022-11-24T13:17:57;41.00;;;21.63;;
44588;SDS011;30298;52.562;13.414;2022-11-24T13:20:23;40.00;;;22.85;;
44588;SDS011;30298;52.562;13.414;2022-11-24T13:22:53;43.53;;;22.63;;
44588;SDS011;30298;52.562;13.414;2022-11-24T13:25:26;38.30;;;20.83;;
44588;SDS011;30298;52.562;13.414;2022-11-24T13:27:55;38.47;;;21.90;;
44588;SDS011;30298;52.562;13.414;2022-11-24T13:35:23;41.45;;;21.10;;
44588;SDS011;30298;52.562;13.414;2022-11-24T13:37:49;34.67;;;19.97;;
44588;SDS011;30298;52.562;13.414;2022-11-24T14:01:12;40.33;;;21.77;;
44588;SDS011;30298;52.562;13.414;2022-11-24T14:06:11;40.35;;;22.08;;
44588;SDS011;30298;52.562;13.414;2022-11-24T14:08:38;38.67;;;21.42;;
44588;SDS011;30298;52.562;13.414;2022-11-24T14:11:09;41.07;;;21.87;;
44588;SDS011;30298;52.562;13.414;2022-11-24T14:13:35;41.25;;;22.17;;
44588;SDS011;30298;52.562;13.414;2022-11-24T14:16:02;45.97;;;22.43;;
44588;SDS011;30298;52.562;13.414;2022-11-24T14:18:28;42.20;;;22.95;;
44588;SDS011;30298;52.562;13.414;2022-11-24T14:20:57;41.33;;;20.48;;
44588;SDS011;30298;52.562;13.414;2022-11-24T14:23:23;41.05;;;22.55;;
44588;SDS011;30298;52.562;13.414;2022-11-24T14:25:48;39.53;;;22.80;;
44588;SDS011;30298;52.562;13.414;2022-11-24T14:30:46;37.40;;;21.38;;
44588;SDS011;30298;52.562;13.414;2022-11-24T14:33:11;44.07;;;22.37;;
44588;SDS011;30298;52.562;13.414;2022-11-24T14:35:42;39.08;;;21.45;;
44588;SDS011;30298;52.562;13.414;2022-11-24T14:38:07;41.28;;;22.50;;
44588;SDS011;30298;52.562;13.414;2022-11-24T14:40:44;40.60;;;22.45;;
44588;SDS011;30298;52.562;13.414;2022-11-24T14:48:22;40.28;;;23.60;;
44588;SDS011;30298;52.562;13.414;2022-11-24T14:50:48;48.00;;;23.27;;
44588;SDS011;30298;52.562;13.414;2022-11-24T14:53:14;46.40;;;23.27;;
44588;SDS011;30298;52.562;13.414;2022-11-24T15:03:33;42.95;;;22.10;;
44588;SDS011;30298;52.562;13.414;2022-11-24T15:05:58;45.63;;;23.57;;
44588;SDS011;30298;52.562;13.414;2022-11-24T15:08:25;41.22;;;22.15;;
44588;SDS011;30298;52.562;13.414;2022-11-24T15:10:58;41.78;;;22.63;;
44588;SDS011;30298;52.562;13.414;2022-11-24T15:13:24;39.03;;;21.20;;
44588;SDS011;30298;52.562;13.414;2022-11-24T15:16:00;40.50;;;22.02;;
44588;SDS011;30298;52.562;13.414;2022-11-24T15:20:52;42.07;;;23.37;;
44588;SDS011;30298;52.562;13.414;2022-11-24T15:25:49;44.78;;;23.20;;
44588;SDS011;30298;52.562;13.414;2022-11-24T15:28:15;43.58;;;22.92;;
44588;SDS011;30298;52.562;13.414;2022-11-24T15:30:40;51.20;;;25.13;;
44588;SDS011;30298;52.562;13.414;2022-11-24T15:33:13;43.40;;;22.87;;
44588;SDS011;30298;52.562;13.414;2022-11-24T15:35:39;44.55;;;23.90;;
44588;SDS011;30298;52.562;13.414;2022-11-24T15:38:04;44.03;;;23.63;;
44588;SDS011;30298;52.562;13.414;2022-11-24T15:40:30;43.53;;;24.33;;
44588;SDS011;30298;52.562;13.414;2022-11-24T15:42:55;46.33;;;24.10;;
44588;SDS011;30298;52.562;13.414;2022-11-24T15:45:21;46.78;;;23.38;;
44588;SDS011;30298;52.562;13.414;2022-11-24T15:47:47;44.97;;;24.63;;
44588;SDS011;30298;52.562;13.414;2022-11-24T15:50:13;40.47;;;22.97;;
44588;SDS011;30298;52.562;13.414;2022-11-24T15:52:39;42.78;;;23.50;;
44588;SDS011;30298;52.562;13.414;2022-11-24T15:55:04;52.25;;;24.40;;
44588;SDS011;30298;52.562;13.414;2022-11-24T15:57:33;47.60;;;25.02;;
44588;SDS011;30298;52.562;13.414;2022-11-24T15:59:58;48.63;;;23.98;;
44588;SDS011;30298;52.562;13.414;2022-11-24T16:02:23;43.87;;;23.37;;
44588;SDS011;30298;52.562;13.414;2022-11-24T16:04:52;48.27;;;24.47;;
44588;SDS011;30298;52.562;13.414;2022-11-24T16:07:17;43.65;;;24.73;;
44588;SDS011;30298;52.562;13.414;2022-11-24T16:09:43;47.43;;;24.03;;
44588;SDS011;30298;52.562;13.414;2022-11-24T16:12:08;44.60;;;24.20;;
44588;SDS011;30298;52.562;13.414;2022-11-24T16:14:34;44.60;;;22.97;;
44588;SDS011;30298;52.562;13.414;2022-11-24T16:25:11;47.00;;;24.73;;
44588;SDS011;30298;52.562;13.414;2022-11-24T16:27:36;50.33;;;25.73;;
44588;SDS011;30298;52.562;13.414;2022-11-24T16:30:02;47.13;;;23.02;;
44588;SDS011;30298;52.562;13.414;2022-11-24T16:32:28;46.17;;;23.38;;